Time;durP1;ratioP1;P1;durP2;ratioP2;P2;SDS_P1;SDS_P2;PMS_P1;PMS_P2;Temp;Humidity;BMP_temperature;BMP_pressure;BME280_temperature;BME280_humidity;BME280_pressure;Samples;Min_cycle;Max_cycle;Signal;HPM_P1;HPM_P2
2022/08/13 00:00:32;;;;;;;2.90;2.30;;;24.20;55.60;;;;;;5000388;28;20040;-62
2022/08/13 00:02:59;;;;;;;5.68;2.00;;;24.20;55.60;;;;;;4999553;28;20945;-60
2022/08/13 00:05:26;;;;;;;2.25;1.50;;;24.20;55.70;;;;;;5001993;28;20041;-61
2022/08/13 00:07:51;;;;;;;5.03;1.98;;;24.10;55.90;;;;;;4998568;28;20808;-61
2022/08/13 00:10:36;;;;;;;3.08;1.73;;;24.10;56.00;;;;;;5001857;28;20046;-61
2022/08/13 00:13:03;;;;;;;3.28;2.05;;;24.10;56.10;;;;;;5001499;28;20038;-61
2022/08/13 00:15:39;;;;;;;2.78;2.00;;;24.10;56.20;;;;;;4997998;28;20485;-58
2022/08/13 00:18:09;;;;;;;6.53;2.03;;;24.00;56.10;;;;;;5000266;28;20393;-61
2022/08/13 00:20:38;;;;;;;3.28;1.52;;;24.00;56.20;;;;;;5001696;28;20030;-59
2022/08/13 00:23:06;;;;;;;5.43;2.10;;;24.00;56.20;;;;;;4998707;28;20034;-60
2022/08/13 00:25:32;;;;;;;3.22;1.90;;;24.10;56.40;;;;;;5000818;28;20034;-59
2022/08/13 00:27:59;;;;;;;2.47;1.60;;;23.90;56.40;;;;;;4981929;28;20057;-59
2022/08/13 00:30:33;;;;;;;5.45;1.60;;;23.90;56.50;;;;;;5000786;28;20698;-59
2022/08/13 00:33:19;;;;;;;2.38;1.65;;;23.90;56.40;;;;;;4998854;28;20125;-59
2022/08/13 00:35:47;;;;;;;3.33;2.20;;;23.90;56.50;;;;;;4997585;28;20026;-59
2022/08/13 00:38:23;;;;;;;3.60;1.95;;;23.80;56.50;;;;;;5000504;28;20038;-59
2022/08/13 00:40:54;;;;;;;3.65;1.98;;;23.80;56.50;;;;;;4999795;28;20034;-59
2022/08/13 00:43:20;;;;;;;3.28;2.35;;;23.80;56.50;;;;;;5000606;28;20026;-59
2022/08/13 00:45:45;;;;;;;4.13;2.13;;;23.80;56.60;;;;;;4999297;28;20044;-59
2022/08/13 00:50:56;;;;;;;2.53;2.08;;;23.70;56.70;;;;;;4997171;28;20033;-59
2022/08/13 00:53:24;;;;;;;5.05;2.40;;;23.70;56.80;;;;;;4998529;28;20462;-59
2022/08/13 00:55:52;;;;;;;3.28;2.00;;;23.70;56.80;;;;;;4999538;28;20486;-59
2022/08/13 00:58:19;;;;;;;2.60;2.15;;;23.60;56.80;;;;;;5000239;28;20033;-59
2022/08/13 01:00:49;;;;;;;3.05;2.28;;;23.60;56.90;;;;;;5001110;28;20022;-59
2022/08/13 01:03:15;;;;;;;2.92;1.90;;;23.60;57.00;;;;;;4999413;28;20030;-59
2022/08/13 01:05:43;;;;;;;2.40;1.67;;;23.60;57.00;;;;;;4999282;28;20033;-59
2022/08/13 01:08:08;;;;;;;2.67;1.75;;;23.60;57.10;;;;;;5014799;28;20049;-59
2022/08/13 01:10:34;;;;;;;2.63;2.10;;;23.50;57.10;;;;;;4998963;28;20542;-59
2022/08/13 01:13:00;;;;;;;5.28;2.50;;;23.50;57.20;;;;;;4981761;28;20022;-59
2022/08/13 01:15:26;;;;;;;3.38;2.28;;;23.50;57.30;;;;;;4999359;28;20049;-59
2022/08/13 01:17:53;;;;;;;3.72;2.10;;;23.50;57.40;;;;;;4991245;28;20097;-60
2022/08/13 01:20:21;;;;;;;3.17;2.10;;;23.50;57.50;;;;;;4975375;28;20238;-59
2022/08/13 01:22:52;;;;;;;3.63;1.67;;;23.40;57.50;;;;;;4996726;28;20342;-60
2022/08/13 01:25:25;;;;;;;2.20;2.00;;;23.40;57.60;;;;;;4996152;28;20053;-59
2022/08/13 01:27:51;;;;;;;3.45;2.42;;;23.30;57.60;;;;;;4981909;28;20092;-59
2022/08/13 01:30:18;;;;;;;2.25;1.90;;;23.30;57.70;;;;;;4997653;28;20033;-60
2022/08/13 01:32:43;;;;;;;3.08;2.33;;;23.30;57.70;;;;;;5000713;28;20048;-59
2022/08/13 01:35:09;;;;;;;3.47;2.00;;;23.30;57.80;;;;;;5003484;28;20686;-59
2022/08/13 01:37:34;;;;;;;4.55;1.90;;;23.30;57.80;;;;;;4983873;28;20049;-59
2022/08/13 01:40:01;;;;;;;5.75;3.65;;;23.30;57.80;;;;;;4999870;28;20032;-59
2022/08/13 01:42:27;;;;;;;8.68;4.90;;;23.30;57.80;;;;;;5016180;28;20445;-59
2022/08/13 01:44:52;;;;;;;6.10;4.05;;;23.20;58.00;;;;;;4984630;28;20030;-60
2022/08/13 01:52:49;;;;;;;3.20;2.80;;;23.10;58.10;;;;;;5001509;28;20048;-59
2022/08/13 01:55:17;;;;;;;4.53;2.53;;;23.20;58.30;;;;;;4999705;28;20021;-59
2022/08/13 01:57:44;;;;;;;6.82;2.30;;;23.10;58.20;;;;;;5000954;28;20029;-59
2022/08/13 02:00:13;;;;;;;3.47;2.35;;;23.10;58.20;;;;;;4998804;28;20030;-59
2022/08/13 02:02:39;;;;;;;5.32;2.55;;;23.10;58.30;;;;;;4999691;28;20147;-59
2022/08/13 02:05:05;;;;;;;4.03;2.20;;;23.00;58.40;;;;;;5001080;28;20033;-60
2022/08/13 02:07:31;;;;;;;5.53;2.08;;;23.10;58.50;;;;;;5000439;28;20026;-59
2022/08/13 02:09:56;;;;;;;3.20;2.10;;;23.00;58.50;;;;;;4998717;28;20022;-59
2022/08/13 02:12:22;;;;;;;2.15;1.85;;;23.00;58.50;;;;;;4981127;28;20115;-60
2022/08/13 02:14:47;;;;;;;3.75;2.15;;;23.00;58.70;;;;;;5000504;28;20069;-59
2022/08/13 02:17:25;;;;;;;3.80;2.00;;;22.90;58.70;;;;;;4999469;28;20209;-59
2022/08/13 02:19:53;;;;;;;2.53;1.85;;;22.90;59.30;;;;;;5001895;28;20038;-59
2022/08/13 02:22:19;;;;;;;2.53;1.65;;;22.90;58.80;;;;;;5000465;28;20079;-59
2022/08/13 02:24:52;;;;;;;4.45;2.10;;;22.90;58.80;;;;;;4997423;28;20414;-59
2022/08/13 02:27:22;;;;;;;3.13;1.70;;;22.80;58.80;;;;;;4999844;28;20042;-59
2022/08/13 02:29:49;;;;;;;2.33;2.10;;;22.80;58.80;;;;;;5014999;28;20474;-59
2022/08/13 02:32:16;;;;;;;5.22;2.25;;;22.80;58.90;;;;;;5001094;28;20029;-59
2022/08/13 02:34:43;;;;;;;3.97;2.30;;;22.70;58.90;;;;;;4999945;28;20263;-59
2022/08/13 02:37:10;;;;;;;6.30;2.63;;;22.70;59.00;;;;;;4982414;28;20033;-59
2022/08/13 02:39:36;;;;;;;4.15;2.92;;;22.70;59.00;;;;;;4999381;28;20818;-59
2022/08/13 02:42:01;;;;;;;3.20;2.05;;;22.70;59.10;;;;;;4996471;28;20046;-59
2022/08/13 02:44:27;;;;;;;5.70;2.30;;;22.70;59.20;;;;;;5002504;28;20026;-59
2022/08/13 02:46:52;;;;;;;8.13;2.05;;;22.70;59.10;;;;;;5003308;28;20057;-59
2022/08/13 02:49:21;;;;;;;5.10;2.08;;;22.60;59.10;;;;;;5003020;28;20030;-59
2022/08/13 02:51:47;;;;;;;6.78;2.10;;;22.60;59.20;;;;;;5000565;28;20346;-59
2022/08/13 02:54:13;;;;;;;5.65;2.17;;;22.60;59.30;;;;;;4982579;28;20654;-59
2022/08/13 02:56:39;;;;;;;4.82;2.30;;;22.60;59.30;;;;;;4996415;28;20540;-59
2022/08/13 02:59:08;;;;;;;5.13;2.15;;;22.60;59.40;;;;;;4998561;28;20493;-59
2022/08/13 03:01:34;;;;;;;3.40;1.88;;;22.50;59.40;;;;;;4998069;28;20403;-59
2022/08/13 03:03:59;;;;;;;2.95;2.15;;;22.50;59.50;;;;;;4982319;28;20018;-59
2022/08/13 03:06:25;;;;;;;4.53;2.92;;;22.50;59.60;;;;;;5000199;28;20050;-59
2022/08/13 03:08:52;;;;;;;4.10;2.83;;;22.40;59.70;;;;;;4999016;28;20033;-59
2022/08/13 03:11:18;;;;;;;4.10;2.60;;;22.40;59.90;;;;;;4997803;28;20022;-59
2022/08/13 03:13:50;;;;;;;3.67;2.55;;;22.40;60.00;;;;;;4998604;28;20492;-59
2022/08/13 03:16:21;;;;;;;5.25;2.53;;;22.40;60.10;;;;;;4997310;28;20821;-59
2022/08/13 03:18:47;;;;;;;4.30;2.10;;;22.30;60.20;;;;;;4996357;28;20044;-59
2022/08/13 03:21:16;;;;;;;4.72;1.92;;;22.30;60.30;;;;;;5000591;28;20356;-59
2022/08/13 03:23:43;;;;;;;2.78;2.13;;;22.30;60.30;;;;;;5000214;28;20021;-59
2022/08/13 03:26:11;;;;;;;3.47;2.22;;;22.30;60.40;;;;;;5000747;28;20037;-59
2022/08/13 03:28:37;;;;;;;3.55;2.30;;;22.30;60.40;;;;;;4998227;28;20030;-59
2022/08/13 03:31:05;;;;;;;5.85;2.10;;;22.30;60.40;;;;;;4998757;28;20046;-59
2022/08/13 03:33:31;;;;;;;3.75;1.90;;;22.20;60.40;;;;;;4982094;28;20021;-60
2022/08/13 03:35:57;;;;;;;4.40;1.75;;;22.20;60.50;;;;;;4999621;28;20452;-59
2022/08/13 03:38:22;;;;;;;3.42;1.67;;;22.20;60.60;;;;;;4997713;28;20134;-59
2022/08/13 03:41:11;;;;;;;2.42;1.75;;;22.20;60.80;;;;;;5000172;28;20648;-59
2022/08/13 03:43:44;;;;;;;5.53;1.55;;;22.20;60.90;;;;;;4997130;28;20182;-59
2022/08/13 03:46:12;;;;;;;3.28;1.85;;;22.10;60.90;;;;;;5000346;28;20030;-59
2022/08/13 03:48:38;;;;;;;4.05;1.38;;;22.10;61.00;;;;;;4980188;28;20026;-59
2022/08/13 03:51:04;;;;;;;1.48;1.35;;;22.10;61.10;;;;;;4981317;28;20030;-59
2022/08/13 03:53:30;;;;;;;2.85;1.42;;;22.10;61.10;;;;;;4999207;28;20040;-59
2022/08/13 03:55:58;;;;;;;2.72;1.33;;;22.00;61.10;;;;;;4996010;28;20057;-59
2022/08/13 03:58:24;;;;;;;5.22;1.40;;;22.00;61.10;;;;;;4997128;28;20045;-59
2022/08/13 04:00:49;;;;;;;2.15;1.20;;;22.00;61.20;;;;;;4997397;28;20143;-59
2022/08/13 04:03:20;;;;;;;2.10;1.40;;;21.90;61.20;;;;;;4996526;28;20104;-59
2022/08/13 04:05:58;;;;;;;3.10;1.17;;;22.00;61.30;;;;;;4997372;28;20029;-59
2022/08/13 04:08:28;;;;;;;1.85;1.10;;;21.90;61.20;;;;;;4996210;28;20132;-59
2022/08/13 04:10:55;;;;;;;2.83;1.40;;;21.90;61.30;;;;;;5013594;28;20049;-60
2022/08/13 04:13:21;;;;;;;2.00;1.30;;;21.90;61.50;;;;;;4998572;28;20029;-59
2022/08/13 04:15:46;;;;;;;2.35;1.35;;;21.90;61.60;;;;;;4997859;28;20022;-59
2022/08/13 04:18:13;;;;;;;5.10;1.30;;;21.80;61.70;;;;;;4998147;28;20490;-59
2022/08/13 04:20:40;;;;;;;3.03;1.35;;;21.80;61.90;;;;;;4998727;28;20033;-60
2022/08/13 04:23:08;;;;;;;3.15;1.30;;;21.70;62.00;;;;;;4995519;28;20025;-59
2022/08/13 04:25:35;;;;;;;2.67;1.40;;;21.80;62.20;;;;;;4998488;28;20018;-59
2022/08/13 04:28:01;;;;;;;1.90;1.23;;;21.70;62.30;;;;;;4998332;28;20037;-60
2022/08/13 04:30:27;;;;;;;7.05;1.33;;;21.70;62.40;;;;;;5001255;28;20125;-59
2022/08/13 04:32:53;;;;;;;1.50;1.08;;;21.60;62.60;;;;;;4999802;28;20041;-59
2022/08/13 04:35:19;;;;;;;1.92;1.30;;;21.60;62.60;;;;;;5000866;28;20018;-59
2022/08/13 04:37:44;;;;;;;4.13;1.30;;;21.60;62.40;;;;;;4997643;28;20042;-59
2022/08/13 04:40:10;;;;;;;4.05;1.40;;;21.60;62.50;;;;;;4998395;28;20054;-59
2022/08/13 04:42:46;;;;;;;3.30;1.63;;;21.60;62.60;;;;;;4997422;28;20054;-59
2022/08/13 04:45:13;;;;;;;2.55;1.65;;;21.60;62.80;;;;;;4996248;28;20803;-59
2022/08/13 04:47:42;;;;;;;2.97;1.73;;;21.50;62.90;;;;;;4998015;28;20022;-59
2022/08/13 04:50:09;;;;;;;2.17;1.60;;;21.50;62.80;;;;;;4996275;28;20034;-59
2022/08/13 04:52:35;;;;;;;2.05;1.30;;;21.50;63.00;;;;;;4994833;28;20485;-59
2022/08/13 04:55:02;;;;;;;1.88;1.30;;;21.50;63.10;;;;;;4995590;28;20061;-59
2022/08/13 04:57:28;;;;;;;3.63;1.50;;;21.40;63.10;;;;;;4998869;28;20845;-59
2022/08/13 04:59:54;;;;;;;1.42;1.27;;;21.40;63.10;;;;;;5000210;28;20022;-59
2022/08/13 05:02:21;;;;;;;2.35;1.40;;;21.40;63.00;;;;;;4999724;28;20620;-59
2022/08/13 05:04:47;;;;;;;2.38;1.50;;;21.40;63.10;;;;;;5000037;28;20038;-59
2022/08/13 05:07:14;;;;;;;3.20;1.38;;;21.50;63.20;;;;;;5000705;28;20029;-59
2022/08/13 05:09:40;;;;;;;2.53;1.77;;;21.40;63.40;;;;;;4998687;28;20433;-59
2022/08/13 05:12:07;;;;;;;1.88;1.40;;;21.40;63.60;;;;;;5001216;28;20113;-58
2022/08/13 05:14:33;;;;;;;8.98;1.50;;;21.40;63.60;;;;;;4996128;28;20509;-59
2022/08/13 05:16:59;;;;;;;2.70;1.50;;;21.40;63.70;;;;;;4998300;28;20556;-59
2022/08/13 05:19:24;;;;;;;5.60;2.33;;;21.20;63.80;;;;;;4999176;28;20026;-58
2022/08/13 05:21:50;;;;;;;6.15;2.90;;;21.30;63.80;;;;;;4999568;28;21470;-59
2022/08/13 05:24:16;;;;;;;5.28;3.85;;;21.30;63.80;;;;;;4996549;28;20077;-59
2022/08/13 05:26:42;;;;;;;6.00;2.53;;;21.30;63.90;;;;;;5001494;28;20096;-59
2022/08/13 05:29:07;;;;;;;4.63;2.08;;;21.30;64.00;;;;;;5000110;28;20088;-59
2022/08/13 05:31:36;;;;;;;3.13;2.20;;;21.30;64.00;;;;;;4999938;28;20042;-59
2022/08/13 05:34:05;;;;;;;3.55;2.40;;;21.30;64.00;;;;;;5001540;28;20030;-59
2022/08/13 05:36:31;;;;;;;6.60;2.42;;;21.30;64.00;;;;;;4998344;28;20087;-59
2022/08/13 05:38:58;;;;;;;6.75;2.15;;;21.30;64.00;;;;;;4998228;28;20452;-60
2022/08/13 05:41:25;;;;;;;4.78;2.22;;;21.30;64.00;;;;;;4996280;28;20045;-61
2022/08/13 05:43:51;;;;;;;5.40;1.85;;;21.30;64.00;;;;;;5011492;28;20034;-59
2022/08/13 05:46:16;;;;;;;3.78;1.73;;;21.30;63.90;;;;;;4994573;28;20554;-59
2022/08/13 05:48:55;;;;;;;5.38;2.28;;;21.30;64.10;;;;;;4991422;28;20486;-59
2022/08/13 05:51:24;;;;;;;3.70;1.90;;;21.20;64.00;;;;;;4993757;28;20092;-59
2022/08/13 05:53:54;;;;;;;6.90;1.80;;;21.20;64.10;;;;;;4997726;28;20073;-62
2022/08/13 05:56:23;;;;;;;6.90;1.98;;;21.20;64.10;;;;;;4998312;28;20029;-60
2022/08/13 05:58:49;;;;;;;4.68;1.80;;;21.20;64.20;;;;;;4995399;28;20021;-59
2022/08/13 06:04:02;;;;;;;3.53;1.60;;;21.20;64.90;;;;;;4992312;28;20381;-59
2022/08/13 06:06:32;;;;;;;3.53;1.70;;;21.20;64.40;;;;;;4992293;28;20041;-59
2022/08/13 06:08:59;;;;;;;7.38;1.65;;;21.20;64.40;;;;;;4979422;28;20119;-59
2022/08/13 06:11:27;;;;;;;4.80;1.90;;;21.10;64.60;;;;;;4996223;28;20022;-59
2022/08/13 06:13:53;;;;;;;8.43;2.47;;;21.10;64.60;;;;;;5013818;28;20060;-59
2022/08/13 06:16:20;;;;;;;8.13;2.67;;;21.20;64.70;;;;;;4993583;28;20041;-59
2022/08/13 06:18:49;;;;;;;6.30;2.33;;;21.10;64.60;;;;;;4975088;28;20501;-62
2022/08/13 06:21:16;;;;;;;12.45;2.65;;;21.10;64.60;;;;;;4997860;28;20034;-59
2022/08/13 06:23:44;;;;;;;5.68;2.28;;;21.10;64.60;;;;;;5014206;28;20117;-59
2022/08/13 06:26:11;;;;;;;4.20;1.90;;;21.10;64.80;;;;;;4999662;28;20170;-59
2022/08/13 06:28:37;;;;;;;8.30;2.38;;;21.10;64.80;;;;;;4984348;28;20560;-62
2022/08/13 06:31:04;;;;;;;4.82;2.08;;;21.10;64.70;;;;;;4980895;28;20033;-59
2022/08/13 06:33:31;;;;;;;8.00;2.17;;;21.10;64.80;;;;;;4997075;28;20040;-61
2022/08/13 06:36:01;;;;;;;9.63;2.80;;;21.10;64.80;;;;;;4996676;28;20044;-59
2022/08/13 06:38:29;;;;;;;8.65;2.22;;;21.10;65.00;;;;;;4999689;28;20030;-59
2022/08/13 06:40:59;;;;;;;3.15;2.30;;;21.10;65.10;;;;;;4984293;28;20034;-59
2022/08/13 06:43:26;;;;;;;8.63;2.60;;;21.30;65.20;;;;;;5001155;28;20516;-59
2022/08/13 06:45:52;;;;;;;4.20;1.90;;;21.10;65.20;;;;;;4983036;28;20230;-59
2022/08/13 06:48:17;;;;;;;4.70;1.98;;;21.10;65.30;;;;;;4997965;28;20035;-59
2022/08/13 06:50:44;;;;;;;7.80;2.05;;;21.10;65.30;;;;;;5002967;28;20080;-63
2022/08/13 06:53:10;;;;;;;5.57;2.10;;;21.10;65.40;;;;;;4984441;28;20052;-59
2022/08/13 06:55:36;;;;;;;10.05;2.00;;;21.10;65.60;;;;;;4998521;28;20116;-59
2022/08/13 06:58:09;;;;;;;6.80;1.92;;;21.10;65.50;;;;;;4997842;28;20044;-59
2022/08/13 07:00:35;;;;;;;4.85;1.90;;;21.10;65.60;;;;;;5001439;28;20085;-59
2022/08/13 07:03:02;;;;;;;3.97;1.70;;;21.10;65.70;;;;;;4999486;28;20037;-59
2022/08/13 07:05:56;;;;;;;2.45;1.65;;;21.10;65.80;;;;;;4983155;28;20580;-59
2022/08/13 07:08:22;;;;;;;2.28;1.83;;;21.20;65.90;;;;;;4998430;28;20046;-59
2022/08/13 07:10:51;;;;;;;4.88;1.83;;;21.10;65.90;;;;;;4998275;28;20140;-59
2022/08/13 07:13:17;;;;;;;4.63;1.95;;;21.10;66.00;;;;;;4998653;28;20168;-59
2022/08/13 07:15:49;;;;;;;7.25;1.92;;;21.10;66.10;;;;;;5014555;28;20045;-59
2022/08/13 07:18:14;;;;;;;3.08;1.65;;;21.10;66.20;;;;;;4997969;28;20018;-59
2022/08/13 07:20:40;;;;;;;3.22;1.65;;;21.10;66.30;;;;;;5000080;28;20109;-59
2022/08/13 07:23:05;;;;;;;2.03;1.67;;;21.10;66.40;;;;;;4965201;28;20040;-59
2022/08/13 07:25:31;;;;;;;2.08;1.50;;;21.10;66.30;;;;;;4997087;28;20084;-59
2022/08/13 07:27:59;;;;;;;2.28;1.58;;;21.10;66.40;;;;;;4980478;28;20014;-59
2022/08/13 07:30:25;;;;;;;6.40;1.42;;;21.10;66.30;;;;;;4983291;28;20445;-59
2022/08/13 07:32:51;;;;;;;4.82;1.70;;;21.10;66.40;;;;;;4998195;28;20030;-60
2022/08/13 07:35:17;;;;;;;8.48;1.90;;;21.10;66.40;;;;;;4997025;28;20492;-59
2022/08/13 07:37:42;;;;;;;3.33;1.52;;;21.10;66.40;;;;;;4999658;28;20125;-59
2022/08/13 07:40:08;;;;;;;4.40;1.55;;;21.10;66.40;;;;;;4997933;28;20623;-59
2022/08/13 07:42:39;;;;;;;6.30;1.48;;;21.10;66.50;;;;;;4990013;28;20049;-59
2022/08/13 07:45:08;;;;;;;6.03;1.80;;;21.20;66.40;;;;;;4997977;28;20706;-59
2022/08/13 07:47:34;;;;;;;4.22;1.60;;;21.10;66.50;;;;;;4997051;28;20033;-59
2022/08/13 07:50:01;;;;;;;5.70;1.83;;;21.20;66.50;;;;;;5011273;28;20041;-59
2022/08/13 07:52:27;;;;;;;5.38;1.80;;;21.10;66.50;;;;;;5010396;28;20447;-59
2022/08/13 07:54:53;;;;;;;3.30;1.55;;;21.20;66.50;;;;;;4999341;28;20042;-60
2022/08/13 07:57:18;;;;;;;3.83;1.35;;;21.20;66.50;;;;;;4996677;28;20032;-59
2022/08/13 07:59:44;;;;;;;8.05;1.70;;;21.20;66.50;;;;;;4998231;28;20060;-60
2022/08/13 08:02:12;;;;;;;3.38;1.65;;;21.20;66.60;;;;;;4999186;28;20121;-60
2022/08/13 08:04:37;;;;;;;3.65;1.42;;;21.20;66.50;;;;;;4995964;28;20034;-60
2022/08/13 08:07:03;;;;;;;2.13;1.50;;;21.20;66.90;;;;;;4995024;28;20497;-60
2022/08/13 08:09:31;;;;;;;2.10;1.40;;;21.20;67.30;;;;;;5001645;28;20033;-61
2022/08/13 08:14:45;;;;;;;7.18;1.80;;;21.20;66.90;;;;;;5002429;28;20036;-61
2022/08/13 08:17:11;;;;;;;4.20;1.75;;;21.20;67.10;;;;;;5000804;28;20034;-61
2022/08/13 08:19:40;;;;;;;5.32;1.60;;;21.20;66.80;;;;;;5000147;28;20092;-61
2022/08/13 08:22:07;;;;;;;4.57;1.60;;;21.30;67.30;;;;;;4997650;28;20028;-61
2022/08/13 08:24:32;;;;;;;4.30;1.92;;;21.30;67.10;;;;;;4995183;28;20170;-61
2022/08/13 08:27:03;;;;;;;10.05;2.38;;;21.30;67.10;;;;;;4994533;28;20176;-58
2022/08/13 08:29:31;;;;;;;12.40;2.20;;;21.30;67.20;;;;;;5011739;28;20022;-59
2022/08/13 08:31:57;;;;;;;7.80;2.33;;;21.30;67.30;;;;;;4997712;28;20042;-60
2022/08/13 08:34:24;;;;;;;9.60;2.38;;;21.40;67.40;;;;;;4996702;28;20451;-59
2022/08/13 08:36:50;;;;;;;19.83;3.20;;;21.40;68.40;;;;;;4995828;28;20056;-59
2022/08/13 08:44:43;;;;;;;18.50;2.97;;;21.40;68.60;;;;;;4982269;28;20046;-60
2022/08/13 08:47:09;;;;;;;28.90;3.97;;;21.40;68.90;;;;;;4992797;28;20030;-61
2022/08/13 08:49:35;;;;;;;25.88;3.88;;;21.30;68.30;;;;;;4994630;28;20033;-60
2022/08/13 08:52:01;;;;;;;19.73;3.35;;;21.40;67.70;;;;;;4996770;28;20030;-60
2022/08/13 08:54:27;;;;;;;21.98;3.45;;;21.40;67.50;;;;;;4996380;28;20034;-60
2022/08/13 08:56:54;;;;;;;14.32;2.80;;;21.50;67.60;;;;;;4990358;28;20061;-60
2022/08/13 08:59:20;;;;;;;30.70;3.92;;;21.50;68.60;;;;;;4996663;28;20118;-60
2022/08/13 09:01:45;;;;;;;26.05;4.32;;;21.50;68.70;;;;;;4978951;28;20034;-60
2022/08/13 09:04:11;;;;;;;25.50;3.97;;;21.50;68.60;;;;;;4997756;28;20034;-60
2022/08/13 09:06:37;;;;;;;26.65;4.80;;;21.60;68.80;;;;;;4998582;28;20065;-61
2022/08/13 09:09:06;;;;;;;13.13;2.90;;;21.60;68.80;;;;;;4996547;28;20016;-61
2022/08/13 09:11:34;;;;;;;20.17;3.20;;;21.60;68.90;;;;;;4997244;28;20070;-61
2022/08/13 09:14:08;;;;;;;30.60;4.15;;;21.60;68.50;;;;;;4994440;28;20034;-61
2022/08/13 09:16:35;;;;;;;28.95;3.90;;;21.60;68.20;;;;;;4997898;28;20311;-60
2022/08/13 09:19:01;;;;;;;20.02;3.00;;;21.60;68.40;;;;;;4994634;28;20162;-59
2022/08/13 09:21:26;;;;;;;23.75;3.75;;;21.70;68.50;;;;;;4997666;28;20810;-59
2022/08/13 09:23:52;;;;;;;15.80;3.42;;;21.70;68.50;;;;;;4995243;28;20559;-62
2022/08/13 09:26:18;;;;;;;23.80;3.70;;;21.70;68.50;;;;;;4997990;28;20046;-59
2022/08/13 09:28:45;;;;;;;23.00;3.80;;;21.70;68.50;;;;;;4997626;28;20065;-59
2022/08/13 09:31:13;;;;;;;26.63;3.22;;;21.70;68.60;;;;;;5013350;28;20018;-59
2022/08/13 09:33:39;;;;;;;24.80;3.65;;;21.80;68.30;;;;;;4997837;28;20490;-59
2022/08/13 09:36:09;;;;;;;31.55;4.38;;;21.80;68.20;;;;;;4995224;28;20052;-60
2022/08/13 09:38:35;;;;;;;36.10;4.97;;;21.80;67.70;;;;;;5010536;28;20503;-60
2022/08/13 09:41:14;;;;;;;19.42;4.07;;;21.80;67.60;;;;;;4995024;28;20137;-59
2022/08/13 09:43:40;;;;;;;44.53;5.05;;;21.90;67.90;;;;;;4996330;28;20117;-59
2022/08/13 09:46:09;;;;;;;31.80;4.35;;;21.90;67.90;;;;;;4980389;28;20044;-60
2022/08/13 09:48:35;;;;;;;13.43;3.70;;;21.90;68.10;;;;;;4999642;28;20022;-61
2022/08/13 09:51:02;;;;;;;24.17;4.00;;;22.00;68.30;;;;;;4993943;28;20924;-61
2022/08/13 09:53:28;;;;;;;42.17;7.32;;;22.00;67.90;;;;;;5015856;28;20022;-61
2022/08/13 09:55:54;;;;;;;27.17;5.68;;;22.00;67.90;;;;;;5002689;28;20033;-61
2022/08/13 09:58:22;;;;;;;20.02;3.65;;;22.10;67.80;;;;;;5001883;28;20033;-60
2022/08/13 10:00:48;;;;;;;13.00;3.25;;;22.10;67.70;;;;;;5003002;28;20116;-61
2022/08/13 10:03:17;;;;;;;28.98;4.40;;;22.20;67.70;;;;;;4981123;28;20030;-61
2022/08/13 10:05:45;;;;;;;29.60;4.45;;;22.20;67.60;;;;;;4993401;28;20108;-61
2022/08/13 10:08:18;;;;;;;29.83;3.80;;;22.20;67.20;;;;;;5011927;28;20421;-61
2022/08/13 10:10:44;;;;;;;14.32;3.08;;;22.20;67.00;;;;;;4995320;28;20038;-61
2022/08/13 10:13:11;;;;;;;36.80;5.65;;;22.30;67.30;;;;;;5000989;28;20191;-61
2022/08/13 10:15:37;;;;;;;26.17;3.85;;;22.30;67.20;;;;;;4997254;28;20401;-61
2022/08/13 10:18:03;;;;;;;25.08;4.28;;;22.30;66.80;;;;;;4979915;28;20041;-59
2022/08/13 10:20:32;;;;;;;33.05;6.30;;;22.30;67.00;;;;;;4979871;28;20402;-61
2022/08/13 10:22:57;;;;;;;23.48;4.95;;;22.40;67.00;;;;;;4996533;28;20034;-61
2022/08/13 10:25:24;;;;;;;30.45;4.28;;;22.50;67.00;;;;;;4998701;28;20041;-61
2022/08/13 10:27:49;;;;;;;24.60;3.95;;;22.60;66.70;;;;;;4999436;28;20576;-61
2022/08/13 10:30:17;;;;;;;23.42;4.47;;;22.60;66.80;;;;;;4999822;28;20034;-61
2022/08/13 10:32:42;;;;;;;26.20;3.78;;;22.60;66.40;;;;;;4993764;28;20222;-61
2022/08/13 10:35:09;;;;;;;23.33;4.03;;;22.60;66.50;;;;;;4998395;28;20037;-61
2022/08/13 10:37:41;;;;;;;31.33;3.40;;;22.70;66.50;;;;;;5000163;28;20515;-61
2022/08/13 10:40:07;;;;;;;20.90;3.00;;;22.70;66.50;;;;;;5016893;28;20128;-61
2022/08/13 10:42:33;;;;;;;15.60;3.38;;;22.60;66.30;;;;;;4999592;28;20121;-61
2022/08/13 10:44:58;;;;;;;11.82;2.85;;;22.70;66.30;;;;;;5000630;28;20506;-61
2022/08/13 10:47:27;;;;;;;18.42;2.78;;;22.70;66.10;;;;;;5001882;28;20038;-61
2022/08/13 10:49:52;;;;;;;23.73;3.33;;;22.80;66.10;;;;;;5003208;28;20120;-61
2022/08/13 10:52:22;;;;;;;27.20;4.53;;;22.80;65.90;;;;;;4982981;28;20113;-61
2022/08/13 10:54:48;;;;;;;30.35;4.13;;;22.90;65.80;;;;;;5012285;28;20061;-61
2022/08/13 10:57:14;;;;;;;17.73;4.20;;;22.90;65.70;;;;;;5004444;28;20037;-61
2022/08/13 10:59:41;;;;;;;15.48;3.65;;;22.90;65.40;;;;;;5002797;28;20029;-62
2022/08/13 11:02:06;;;;;;;16.58;3.90;;;23.00;65.20;;;;;;4984603;28;20073;-61
2022/08/13 11:04:33;;;;;;;28.30;3.30;;;23.00;64.90;;;;;;5002287;28;20029;-61
2022/08/13 11:07:00;;;;;;;16.08;3.30;;;23.10;64.40;;;;;;4998789;28;20026;-61
2022/08/13 11:09:25;;;;;;;11.18;2.78;;;23.10;64.10;;;;;;5002485;28;20050;-61
2022/08/13 11:11:55;;;;;;;64.60;9.70;;;23.20;63.90;;;;;;4996904;28;20113;-61
2022/08/13 11:14:21;;;;;;;28.48;3.38;;;23.30;63.80;;;;;;5018601;28;20029;-61
2022/08/13 11:19:15;;;;;;;18.88;3.10;;;23.40;63.20;;;;;;5002748;28;20744;-61
2022/08/13 11:21:44;;;;;;;16.20;3.40;;;23.50;62.90;;;;;;5001356;28;20042;-59
2022/08/13 11:24:13;;;;;;;21.38;4.13;;;23.60;62.30;;;;;;5014857;28;20034;-61
2022/08/13 11:26:38;;;;;;;20.25;2.83;;;23.60;61.80;;;;;;5018862;28;20124;-61
2022/08/13 11:29:04;;;;;;;24.42;3.20;;;23.70;61.10;;;;;;5017288;28;20180;-61
2022/08/13 11:31:30;;;;;;;21.60;3.95;;;23.80;60.90;;;;;;4982987;28;20033;-61
2022/08/13 11:33:56;;;;;;;19.95;3.15;;;24.00;60.70;;;;;;5001155;28;20030;-61
2022/08/13 11:36:21;;;;;;;17.83;3.17;;;24.00;60.60;;;;;;5015871;28;20092;-61
2022/08/13 11:38:47;;;;;;;34.50;5.60;;;24.10;60.20;;;;;;5001489;28;20026;-60
2022/08/13 11:41:12;;;;;;;13.65;2.65;;;24.30;59.70;;;;;;4985417;28;20111;-60
2022/08/13 11:43:38;;;;;;;12.10;2.20;;;24.40;58.50;;;;;;4983721;28;20130;-60
2022/08/13 11:46:04;;;;;;;9.73;2.20;;;24.50;58.20;;;;;;4978805;28;20038;-60
2022/08/13 11:48:29;;;;;;;18.10;2.28;;;24.60;57.60;;;;;;4999415;28;20034;-61
2022/08/13 11:50:55;;;;;;;14.07;2.17;;;24.70;57.20;;;;;;5001022;28;20087;-61
2022/08/13 11:53:21;;;;;;;6.32;1.73;;;24.80;56.70;;;;;;4996820;28;20041;-61
2022/08/13 11:55:47;;;;;;;6.60;1.70;;;24.80;56.50;;;;;;5000792;28;20186;-61
2022/08/13 11:58:13;;;;;;;5.50;1.33;;;24.90;55.90;;;;;;4995977;28;20030;-60
2022/08/13 12:00:39;;;;;;;5.57;1.70;;;24.90;55.90;;;;;;4995535;28;20048;-60
2022/08/13 12:03:05;;;;;;;5.55;1.67;;;25.00;55.60;;;;;;4993669;28;20121;-61
2022/08/13 12:05:30;;;;;;;2.47;1.27;;;25.10;55.80;;;;;;4998407;28;20032;-60
2022/08/13 12:07:56;;;;;;;9.60;2.00;;;25.10;55.40;;;;;;5000518;28;20049;-60
2022/08/13 12:10:21;;;;;;;10.80;2.20;;;25.20;55.60;;;;;;5002223;28;20026;-61
2022/08/13 12:12:47;;;;;;;6.88;1.65;;;25.30;55.70;;;;;;4999712;28;20044;-61
2022/08/13 12:15:13;;;;;;;18.33;2.10;;;25.30;55.40;;;;;;5013592;28;20061;-61
2022/08/13 12:17:47;;;;;;;8.95;1.95;;;25.40;55.50;;;;;;4998178;28;20044;-60
2022/08/13 12:20:20;;;;;;;14.88;2.25;;;25.40;55.00;;;;;;4999692;28;20310;-62
2022/08/13 12:22:56;;;;;;;14.38;2.47;;;25.50;55.00;;;;;;4999212;28;20595;-61
2022/08/13 12:25:23;;;;;;;6.18;1.58;;;25.60;55.20;;;;;;5015604;28;20147;-60
2022/08/13 12:27:49;;;;;;;11.43;2.25;;;25.60;54.60;;;;;;4998749;28;20823;-60
2022/08/13 12:30:14;;;;;;;5.80;1.52;;;25.70;54.50;;;;;;5000009;28;20112;-60
2022/08/13 12:32:40;;;;;;;10.43;1.80;;;25.80;53.70;;;;;;5000977;28;20123;-61
2022/08/13 12:35:06;;;;;;;13.77;2.40;;;25.80;53.80;;;;;;4999975;28;20113;-60
2022/08/13 12:37:31;;;;;;;11.85;2.30;;;25.80;53.60;;;;;;4996993;28;20501;-61
2022/08/13 12:39:57;;;;;;;10.20;1.83;;;25.90;53.60;;;;;;5001592;28;20042;-60
2022/08/13 12:42:24;;;;;;;2.15;1.25;;;25.90;53.60;;;;;;5002780;28;20053;-60
2022/08/13 12:44:49;;;;;;;2.78;1.33;;;26.00;53.20;;;;;;5000239;28;20112;-61
2022/08/13 12:47:15;;;;;;;8.75;1.83;;;26.10;52.80;;;;;;5001805;28;20552;-61
2022/08/13 12:49:40;;;;;;;15.00;2.67;;;26.10;52.50;;;;;;4996297;28;20045;-61
2022/08/13 12:52:06;;;;;;;7.15;1.63;;;26.20;52.90;;;;;;4997346;28;20033;-61
2022/08/13 12:54:32;;;;;;;7.47;1.40;;;26.20;51.30;;;;;;4982006;28;20049;-61
2022/08/13 12:56:57;;;;;;;9.02;2.15;;;26.20;51.70;;;;;;4996342;28;20088;-61
2022/08/13 12:59:23;;;;;;;9.55;1.70;;;26.30;52.00;;;;;;5000843;28;20025;-61
2022/08/13 13:01:52;;;;;;;14.73;1.67;;;26.30;52.10;;;;;;5003180;28;20072;-60
2022/08/13 13:04:18;;;;;;;9.65;1.50;;;26.40;52.20;;;;;;5001030;28;20037;-60